Time;durP1;ratioP1;P1;durP2;ratioP2;P2;SDS_P1;SDS_P2;PMS_P1;PMS_P2;Temp;Humidity;BMP_temperature;BMP_pressure;BME280_temperature;BME280_humidity;BME280_pressure;Samples;Min_cycle;Max_cycle;Signal;HPM_P1;HPM_P2
2023/05/22 00:01:07;;;;;;;7.82;6.80;;;24.40;51.50;;;;;;5055810;28;20024;-59
2023/05/22 00:03:33;;;;;;;7.80;6.65;;;24.40;51.60;;;;;;5052901;28;20040;-62
2023/05/22 00:05:59;;;;;;;7.63;6.93;;;24.40;51.60;;;;;;5053549;28;20037;-62
2023/05/22 00:08:27;;;;;;;7.20;6.20;;;24.40;51.60;;;;;;5056221;28;20142;-60
2023/05/22 00:10:54;;;;;;;7.70;6.95;;;24.40;51.70;;;;;;5047713;28;20035;-62
2023/05/22 00:13:20;;;;;;;8.85;7.88;;;24.40;51.70;;;;;;5039791;28;20037;-60
2023/05/22 00:15:46;;;;;;;7.30;6.60;;;24.40;51.80;;;;;;5053398;28;20154;-59
2023/05/22 00:18:12;;;;;;;7.70;6.95;;;24.40;51.80;;;;;;5056060;28;20049;-61
2023/05/22 00:20:39;;;;;;;8.05;7.25;;;24.40;51.80;;;;;;5047000;28;20154;-61
2023/05/22 00:23:09;;;;;;;9.00;8.07;;;24.40;51.90;;;;;;5054950;28;20064;-61
2023/05/22 00:25:36;;;;;;;7.40;6.70;;;24.40;51.90;;;;;;5054194;28;20037;-62
2023/05/22 00:28:02;;;;;;;8.38;7.03;;;24.40;52.00;;;;;;5058087;28;20159;-61
2023/05/22 00:30:28;;;;;;;8.98;7.50;;;24.40;52.00;;;;;;5051545;28;20029;-61
2023/05/22 00:32:55;;;;;;;8.13;7.32;;;24.40;52.00;;;;;;5038055;28;20058;-62
2023/05/22 00:35:21;;;;;;;7.55;6.80;;;24.30;52.00;;;;;;5050607;28;20033;-61
2023/05/22 00:37:46;;;;;;;8.40;7.28;;;24.30;52.00;;;;;;5035081;28;20552;-62
2023/05/22 00:40:16;;;;;;;7.82;6.65;;;24.40;52.10;;;;;;5036451;28;20464;-62
2023/05/22 00:42:43;;;;;;;7.10;6.28;;;24.30;52.00;;;;;;5037930;28;20045;-60
2023/05/22 00:45:13;;;;;;;7.30;6.60;;;24.30;52.10;;;;;;5052085;28;20088;-60
2023/05/22 00:47:40;;;;;;;6.50;5.85;;;24.30;52.10;;;;;;5034241;28;20048;-62
2023/05/22 00:50:08;;;;;;;7.15;6.25;;;24.30;52.00;;;;;;5035185;28;20037;-59
2023/05/22 00:52:37;;;;;;;7.43;6.18;;;24.30;52.00;;;;;;5055590;28;20028;-60
2023/05/22 00:55:03;;;;;;;7.45;6.65;;;24.30;52.00;;;;;;5040359;28;21467;-61
2023/05/22 00:57:30;;;;;;;7.50;6.15;;;24.30;52.00;;;;;;5036570;28;20195;-61
2023/05/22 00:59:56;;;;;;;7.10;6.13;;;24.30;52.00;;;;;;5054927;28;20171;-60
2023/05/22 01:02:23;;;;;;;7.60;5.75;;;24.30;52.00;;;;;;5054087;28;20063;-61
2023/05/22 01:04:49;;;;;;;7.03;6.32;;;24.30;52.00;;;;;;5025737;28;20036;-64
2023/05/22 01:07:16;;;;;;;8.57;6.40;;;24.30;52.10;;;;;;5034534;28;20040;-59
2023/05/22 01:09:43;;;;;;;6.85;6.10;;;24.30;52.10;;;;;;5035589;28;20048;-62
2023/05/22 01:12:37;;;;;;;6.90;6.18;;;24.30;52.10;;;;;;5031618;28;20025;-62
2023/05/22 01:15:18;;;;;;;7.22;6.13;;;24.30;52.10;;;;;;5054548;28;20062;-61
2023/05/22 01:17:59;;;;;;;7.20;6.50;;;24.30;52.70;;;;;;5052786;28;20179;-62
2023/05/22 01:20:35;;;;;;;8.15;6.25;;;24.20;52.10;;;;;;5052240;28;20044;-63
2023/05/22 01:23:16;;;;;;;6.70;6.10;;;24.30;52.10;;;;;;5032628;28;20219;-60
2023/05/22 01:25:54;;;;;;;6.30;5.32;;;24.30;52.80;;;;;;5035542;28;20033;-60
2023/05/22 01:28:49;;;;;;;6.93;6.10;;;24.20;52.10;;;;;;5051470;28;20029;-61
2023/05/22 01:31:18;;;;;;;6.47;5.72;;;24.20;52.10;;;;;;5054968;28;20037;-61
2023/05/22 01:33:58;;;;;;;6.28;5.53;;;24.20;52.10;;;;;;5058746;28;20404;-60
2023/05/22 01:36:29;;;;;;;7.38;6.18;;;24.20;52.10;;;;;;5057081;28;20107;-60
2023/05/22 01:38:57;;;;;;;6.90;5.40;;;24.20;52.10;;;;;;5036347;28;20040;-62
2023/05/22 01:41:24;;;;;;;6.40;5.80;;;24.20;52.10;;;;;;5034459;28;20096;-63
2023/05/22 01:43:51;;;;;;;6.75;5.72;;;24.20;52.10;;;;;;5034869;28;20040;-60
2023/05/22 01:46:17;;;;;;;6.75;5.70;;;24.20;52.10;;;;;;5055947;28;20092;-61
2023/05/22 01:48:42;;;;;;;7.88;5.70;;;24.20;52.10;;;;;;5051958;28;20080;-60
2023/05/22 01:51:22;;;;;;;6.78;5.90;;;24.20;52.20;;;;;;5050344;28;21209;-61
2023/05/22 01:54:02;;;;;;;7.00;5.97;;;24.20;52.20;;;;;;5052216;28;20025;-62
2023/05/22 01:56:54;;;;;;;6.63;5.68;;;24.20;52.20;;;;;;5055012;28;20033;-61
2023/05/22 01:59:29;;;;;;;6.17;5.57;;;24.20;52.20;;;;;;5037334;28;20371;-60
2023/05/22 02:02:00;;;;;;;6.50;5.47;;;24.20;52.20;;;;;;5034207;28;20460;-62
2023/05/22 02:04:28;;;;;;;6.47;5.45;;;24.20;52.20;;;;;;5035359;28;20139;-61
2023/05/22 02:06:58;;;;;;;8.63;5.90;;;24.20;52.20;;;;;;5057627;28;20099;-61
2023/05/22 02:09:29;;;;;;;5.50;5.00;;;24.10;52.20;;;;;;5053827;28;20454;-61
2023/05/22 02:11:56;;;;;;;5.70;4.93;;;24.20;52.20;;;;;;5039282;28;20113;-63
2023/05/22 02:14:23;;;;;;;5.82;5.22;;;24.20;52.20;;;;;;5032970;28;20304;-61
2023/05/22 02:16:49;;;;;;;6.15;5.13;;;24.20;52.20;;;;;;5031134;28;20048;-61
2023/05/22 02:19:15;;;;;;;5.88;5.28;;;24.10;52.10;;;;;;5048764;28;20124;-63
2023/05/22 02:21:42;;;;;;;6.97;5.45;;;24.20;52.20;;;;;;5037821;28;20060;-61
2023/05/22 02:24:08;;;;;;;6.25;5.60;;;24.10;52.10;;;;;;5051341;28;20032;-63
2023/05/22 02:26:34;;;;;;;5.60;4.97;;;24.10;52.10;;;;;;5053459;28;20029;-64
2023/05/22 02:28:59;;;;;;;5.93;5.32;;;24.10;52.10;;;;;;5031005;28;20028;-64
2023/05/22 02:31:25;;;;;;;5.72;5.13;;;24.10;52.10;;;;;;5046431;28;20044;-63
2023/05/22 02:33:51;;;;;;;5.43;4.82;;;24.10;52.10;;;;;;5034987;28;20074;-59
2023/05/22 02:36:18;;;;;;;5.63;4.93;;;24.10;52.10;;;;;;5033601;28;20417;-63
2023/05/22 02:38:46;;;;;;;6.13;5.53;;;24.10;52.00;;;;;;5029980;28;20562;-62
2023/05/22 02:41:12;;;;;;;5.93;5.00;;;24.10;52.00;;;;;;5036272;28;20029;-64
2023/05/22 02:43:38;;;;;;;6.93;5.10;;;24.10;52.00;;;;;;5030223;28;20052;-61
2023/05/22 02:46:04;;;;;;;5.68;4.88;;;24.10;52.00;;;;;;5037475;28;20032;-61
2023/05/22 02:48:30;;;;;;;5.50;4.75;;;24.10;52.00;;;;;;5037510;28;20388;-62
2023/05/22 02:50:55;;;;;;;6.43;5.50;;;24.10;52.00;;;;;;5050326;28;20170;-60
2023/05/22 02:53:21;;;;;;;5.50;5.00;;;24.10;52.10;;;;;;5036838;28;20025;-63
2023/05/22 02:55:47;;;;;;;6.78;5.75;;;24.10;52.00;;;;;;5055616;28;20440;-62
2023/05/22 02:58:13;;;;;;;5.85;4.82;;;24.10;52.00;;;;;;5033117;28;20432;-63
2023/05/22 03:00:42;;;;;;;5.32;4.75;;;24.10;52.00;;;;;;5031029;28;20098;-62
2023/05/22 03:03:10;;;;;;;5.57;5.00;;;24.10;52.00;;;;;;5034116;28;20041;-61
2023/05/22 03:05:36;;;;;;;5.55;5.03;;;24.10;52.00;;;;;;5033366;28;20024;-63
2023/05/22 03:08:02;;;;;;;5.35;4.85;;;24.10;52.00;;;;;;5053308;28;20040;-62
2023/05/22 03:10:28;;;;;;;5.50;4.90;;;24.10;52.10;;;;;;5034197;28;20025;-65
2023/05/22 03:12:53;;;;;;;6.50;4.90;;;24.00;52.00;;;;;;5054270;28;20313;-62
2023/05/22 03:15:20;;;;;;;5.35;4.85;;;24.00;52.00;;;;;;5034703;28;20248;-63
2023/05/22 03:17:46;;;;;;;5.80;5.05;;;24.00;52.00;;;;;;5032620;28;20051;-63
2023/05/22 03:20:16;;;;;;;5.78;4.80;;;24.00;52.00;;;;;;5028487;28;20447;-61
2023/05/22 03:22:43;;;;;;;5.47;4.68;;;24.00;52.10;;;;;;5031617;28;20032;-60
2023/05/22 03:25:09;;;;;;;6.00;5.40;;;24.00;52.10;;;;;;5051997;28;20036;-60
2023/05/22 03:27:39;;;;;;;6.70;4.75;;;24.00;52.10;;;;;;5017901;28;20086;-61
2023/05/22 03:30:05;;;;;;;5.15;4.65;;;24.00;52.10;;;;;;5054146;28;20440;-62
2023/05/22 03:32:37;;;;;;;6.60;5.00;;;24.00;52.10;;;;;;5033827;28;20078;-62
2023/05/22 03:35:04;;;;;;;5.82;4.55;;;24.00;52.10;;;;;;5036228;28;20054;-59
2023/05/22 03:37:30;;;;;;;5.05;4.53;;;24.00;52.20;;;;;;5052801;28;20420;-61
2023/05/22 03:39:56;;;;;;;5.18;4.65;;;24.00;52.30;;;;;;5033644;28;20017;-63
2023/05/22 03:42:28;;;;;;;5.60;4.70;;;24.00;52.20;;;;;;5031025;28;20144;-62
2023/05/22 03:44:55;;;;;;;4.65;4.20;;;24.00;52.30;;;;;;5058486;28;20048;-59
2023/05/22 03:47:21;;;;;;;5.05;4.53;;;24.00;52.20;;;;;;5036266;28;20020;-59
2023/05/22 03:49:47;;;;;;;5.25;4.75;;;24.00;52.20;;;;;;5034257;28;20045;-64
2023/05/22 03:52:13;;;;;;;5.30;4.78;;;24.00;52.20;;;;;;5039439;28;20036;-60
2023/05/22 03:54:39;;;;;;;5.28;4.75;;;24.00;52.20;;;;;;5039624;28;20052;-61
2023/05/22 03:57:05;;;;;;;5.88;5.00;;;24.00;52.80;;;;;;5037453;28;20025;-61
2023/05/22 03:59:31;;;;;;;6.13;4.75;;;24.00;52.20;;;;;;5054503;28;20168;-61
2023/05/22 04:01:59;;;;;;;6.07;4.70;;;24.00;52.20;;;;;;5055109;28;20131;-63
2023/05/22 04:04:27;;;;;;;5.50;4.80;;;24.00;52.20;;;;;;5051462;28;20040;-64
2023/05/22 04:06:53;;;;;;;5.28;4.72;;;24.00;52.20;;;;;;5054797;28;20060;-63
2023/05/22 04:09:19;;;;;;;5.45;4.53;;;23.90;52.10;;;;;;5041505;28;20117;-62
2023/05/22 04:11:45;;;;;;;6.25;5.38;;;23.90;52.10;;;;;;5052908;28;20127;-61
2023/05/22 04:14:11;;;;;;;4.47;4.03;;;24.00;52.10;;;;;;5033628;28;20037;-62
2023/05/22 04:16:37;;;;;;;7.15;4.90;;;23.90;52.00;;;;;;5054187;28;20028;-62
2023/05/22 04:19:04;;;;;;;5.18;4.45;;;23.90;52.00;;;;;;5029402;28;20430;-61
2023/05/22 04:21:34;;;;;;;5.10;4.60;;;24.00;52.00;;;;;;5033922;28;20066;-60
2023/05/22 04:24:01;;;;;;;4.75;4.25;;;23.90;52.00;;;;;;5054018;28;20074;-61
2023/05/22 04:26:30;;;;;;;4.75;4.20;;;23.90;51.90;;;;;;5054096;28;20036;-60
2023/05/22 04:28:56;;;;;;;5.82;5.15;;;23.90;51.90;;;;;;5056661;28;20143;-60
2023/05/22 04:31:22;;;;;;;4.95;4.47;;;23.90;51.90;;;;;;5029931;28;20875;-62
2023/05/22 04:33:48;;;;;;;5.60;4.55;;;23.90;51.80;;;;;;5056229;28;20043;-60
2023/05/22 04:36:14;;;;;;;5.10;4.20;;;23.90;51.80;;;;;;5054989;28;20289;-59
2023/05/22 04:38:43;;;;;;;4.85;4.35;;;23.90;51.80;;;;;;5056608;28;20047;-61
2023/05/22 04:41:16;;;;;;;5.10;4.55;;;23.90;51.80;;;;;;5053356;28;20557;-60
2023/05/22 04:43:43;;;;;;;5.32;4.40;;;24.00;51.80;;;;;;5039115;28;20045;-61
2023/05/22 04:46:09;;;;;;;5.40;4.60;;;23.90;51.80;;;;;;5057061;28;20033;-61
2023/05/22 04:48:35;;;;;;;5.35;4.53;;;23.90;51.80;;;;;;5054583;28;20106;-62
2023/05/22 04:51:03;;;;;;;4.85;4.22;;;23.90;51.80;;;;;;5035444;28;20025;-61
2023/05/22 04:53:29;;;;;;;4.80;4.22;;;23.90;51.70;;;;;;5039985;28;20320;-61
2023/05/22 04:55:58;;;;;;;4.68;4.15;;;23.90;51.70;;;;;;5036520;28;20024;-63
2023/05/22 04:58:26;;;;;;;6.25;4.68;;;23.90;51.70;;;;;;5034725;28;20428;-61
2023/05/22 05:00:53;;;;;;;5.05;4.55;;;23.90;51.70;;;;;;5038061;28;20044;-65
2023/05/22 05:03:21;;;;;;;4.97;4.47;;;23.90;51.70;;;;;;5039109;28;20144;-61
2023/05/22 05:05:47;;;;;;;5.00;4.50;;;23.90;51.70;;;;;;5038484;28;20077;-61
2023/05/22 05:08:13;;;;;;;4.93;4.30;;;23.90;51.70;;;;;;5031137;28;20017;-61
2023/05/22 05:10:39;;;;;;;4.45;4.05;;;23.90;51.70;;;;;;5038119;28;20047;-62
2023/05/22 05:13:05;;;;;;;4.53;3.85;;;23.90;51.70;;;;;;5036419;28;20448;-62
2023/05/22 05:15:35;;;;;;;4.13;3.72;;;23.90;51.80;;;;;;5038854;28;20427;-60
2023/05/22 05:18:01;;;;;;;4.80;4.05;;;24.00;51.80;;;;;;5038903;28;20336;-60
2023/05/22 05:20:29;;;;;;;4.20;3.80;;;23.90;51.80;;;;;;5049750;28;20062;-62
2023/05/22 05:22:55;;;;;;;4.25;3.83;;;23.90;52.40;;;;;;5033546;28;20493;-61
2023/05/22 05:25:21;;;;;;;4.25;3.90;;;24.00;51.80;;;;;;5032178;28;20402;-61
2023/05/22 05:27:47;;;;;;;4.47;3.47;;;24.00;51.80;;;;;;5051202;28;20866;-60
2023/05/22 05:30:14;;;;;;;3.92;3.53;;;24.00;51.70;;;;;;5035898;28;20282;-62
2023/05/22 05:32:58;;;;;;;3.70;3.28;;;24.00;51.70;;;;;;5037476;28;20428;-61
2023/05/22 05:35:31;;;;;;;4.25;3.58;;;24.00;51.70;;;;;;5031472;28;20025;-61
2023/05/22 05:38:05;;;;;;;4.07;3.22;;;24.00;51.70;;;;;;5034701;28;20387;-62
2023/05/22 05:40:33;;;;;;;3.47;3.00;;;24.00;51.60;;;;;;5032527;28;20020;-61
2023/05/22 05:42:59;;;;;;;3.58;3.28;;;24.00;51.50;;;;;;5035576;28;20412;-61
2023/05/22 05:45:25;;;;;;;3.47;3.17;;;24.00;51.50;;;;;;5033825;28;20104;-62
2023/05/22 05:47:52;;;;;;;3.20;2.90;;;24.00;51.50;;;;;;5044410;28;20102;-62
2023/05/22 05:50:18;;;;;;;2.92;2.72;;;24.00;51.50;;;;;;5035924;28;20114;-60
2023/05/22 05:52:44;;;;;;;3.47;3.17;;;24.00;51.40;;;;;;5036861;28;20029;-61
2023/05/22 05:55:14;;;;;;;3.33;3.03;;;24.00;51.40;;;;;;5035055;28;20036;-63
2023/05/22 05:57:40;;;;;;;3.33;3.00;;;24.00;51.30;;;;;;5034143;28;20227;-61
2023/05/22 06:00:10;;;;;;;3.15;2.85;;;24.00;51.30;;;;;;5038322;28;21011;-62
2023/05/22 06:02:42;;;;;;;3.20;2.90;;;24.00;51.40;;;;;;5057192;28;20068;-63
2023/05/22 06:05:30;;;;;;;3.85;2.97;;;24.00;51.30;;;;;;5039771;28;20029;-60
2023/05/22 06:08:08;;;;;;;3.45;2.83;;;24.00;51.30;;;;;;5038977;28;20047;-62
2023/05/22 06:10:34;;;;;;;3.42;3.13;;;24.00;51.30;;;;;;5036927;28;20083;-59
2023/05/22 06:13:10;;;;;;;3.35;3.05;;;24.00;51.30;;;;;;5037327;28;20031;-61
2023/05/22 06:15:36;;;;;;;3.83;3.42;;;24.00;51.30;;;;;;5031223;28;20111;-59
2023/05/22 06:18:01;;;;;;;3.40;3.10;;;24.00;51.30;;;;;;5027956;28;20040;-63
2023/05/22 06:20:28;;;;;;;4.10;3.20;;;24.10;51.40;;;;;;5029548;28;20096;-63
2023/05/22 06:22:54;;;;;;;3.42;3.10;;;24.10;51.40;;;;;;5034310;28;20397;-64
2023/05/22 06:25:20;;;;;;;3.30;3.00;;;24.10;51.50;;;;;;5030091;28;20037;-60
2023/05/22 06:27:47;;;;;;;3.70;3.40;;;24.10;51.50;;;;;;5026424;28;20116;-62
2023/05/22 06:30:15;;;;;;;6.03;3.03;;;24.00;51.40;;;;;;5048778;28;20044;-61
2023/05/22 06:32:42;;;;;;;3.90;3.40;;;24.10;51.50;;;;;;5013497;28;20037;-61
2023/05/22 06:35:10;;;;;;;3.45;3.15;;;24.10;51.50;;;;;;5034541;28;20036;-61
2023/05/22 06:37:40;;;;;;;4.13;3.30;;;24.10;51.50;;;;;;5045345;28;20093;-62
2023/05/22 06:40:07;;;;;;;3.35;3.00;;;24.10;51.50;;;;;;5044979;28;20119;-61
2023/05/22 06:42:41;;;;;;;3.83;3.35;;;24.10;51.50;;;;;;5020282;28;20339;-61
2023/05/22 06:45:22;;;;;;;4.68;3.38;;;24.10;51.60;;;;;;5049914;28;20123;-60
2023/05/22 06:48:05;;;;;;;3.55;3.13;;;24.10;51.60;;;;;;5025412;28;20045;-61
2023/05/22 06:50:36;;;;;;;4.55;3.60;;;24.10;51.70;;;;;;5026995;28;20045;-60
2023/05/22 06:53:01;;;;;;;3.58;3.25;;;24.10;51.70;;;;;;5035503;28;20112;-63
2023/05/22 06:55:28;;;;;;;3.58;3.28;;;24.10;51.80;;;;;;5030594;28;20675;-61
2023/05/22 06:58:04;;;;;;;4.10;3.53;;;24.20;51.90;;;;;;5025549;28;20040;-65
2023/05/22 07:00:32;;;;;;;3.70;3.20;;;24.10;51.90;;;;;;5028796;28;20020;-61
2023/05/22 07:03:05;;;;;;;4.50;3.65;;;24.20;52.00;;;;;;5026819;28;20464;-62
2023/05/22 07:05:39;;;;;;;4.22;3.60;;;24.20;52.00;;;;;;5030076;28;20231;-60
2023/05/22 07:08:05;;;;;;;4.75;3.90;;;24.20;52.10;;;;;;5033803;28;20115;-62
2023/05/22 07:10:31;;;;;;;4.28;3.88;;;24.20;52.10;;;;;;5032524;28;20396;-64
2023/05/22 07:12:58;;;;;;;5.05;3.97;;;24.20;52.20;;;;;;5030416;28;20184;-61
2023/05/22 07:15:24;;;;;;;4.15;3.70;;;24.20;52.20;;;;;;5032906;28;20396;-55
2023/05/22 07:17:52;;;;;;;3.88;3.47;;;24.20;52.20;;;;;;5030228;28;20036;-58
2023/05/22 07:20:18;;;;;;;4.10;3.70;;;24.20;52.20;;;;;;5039030;28;20149;-63
2023/05/22 07:22:57;;;;;;;4.63;3.67;;;24.20;52.30;;;;;;5054993;28;20071;-61
2023/05/22 07:25:23;;;;;;;5.57;4.05;;;24.20;52.40;;;;;;5030492;28;20123;-60
2023/05/22 07:27:49;;;;;;;5.47;4.13;;;24.20;52.40;;;;;;5047370;28;20148;-60
2023/05/22 07:30:16;;;;;;;4.88;3.80;;;24.20;52.50;;;;;;5033065;28;20034;-62
2023/05/22 07:32:42;;;;;;;4.80;4.28;;;24.20;52.50;;;;;;5039939;28;20425;-58
2023/05/22 07:35:09;;;;;;;4.47;4.07;;;24.20;52.50;;;;;;5032008;28;20033;-57
2023/05/22 07:37:36;;;;;;;5.20;4.50;;;24.30;53.30;;;;;;5036977;28;20025;-59
2023/05/22 07:40:06;;;;;;;5.78;4.82;;;24.30;52.70;;;;;;5028663;28;20117;-61
2023/05/22 07:42:33;;;;;;;4.70;4.20;;;24.30;52.80;;;;;;5043806;28;20134;-62
2023/05/22 07:45:01;;;;;;;4.82;4.32;;;24.30;52.80;;;;;;5006210;28;20057;-60
2023/05/22 07:47:27;;;;;;;6.57;4.13;;;24.30;52.90;;;;;;5006196;28;20022;-63
2023/05/22 07:49:53;;;;;;;5.03;4.53;;;24.30;52.90;;;;;;5006917;28;20407;-60
2023/05/22 07:52:20;;;;;;;5.55;4.30;;;24.30;53.00;;;;;;5009485;28;20099;-59
2023/05/22 07:54:46;;;;;;;6.53;4.60;;;24.30;53.00;;;;;;5006113;28;20041;-62
2023/05/22 07:57:14;;;;;;;5.05;4.55;;;24.40;53.10;;;;;;5007042;28;20084;-61
2023/05/22 07:59:42;;;;;;;5.18;4.50;;;24.40;53.10;;;;;;5011858;28;20357;-63
2023/05/22 08:02:08;;;;;;;4.65;4.15;;;24.30;53.10;;;;;;5015776;28;20313;-61
2023/05/22 08:04:34;;;;;;;6.20;4.45;;;24.40;53.20;;;;;;5003491;28;20113;-59
2023/05/22 08:07:00;;;;;;;4.68;4.22;;;24.40;53.20;;;;;;5006326;28;20123;-60
2023/05/22 08:09:26;;;;;;;5.28;4.65;;;24.40;53.90;;;;;;5012605;28;20056;-61
2023/05/22 08:11:52;;;;;;;4.78;4.35;;;24.40;53.20;;;;;;5010440;28;20695;-62
2023/05/22 08:14:20;;;;;;;4.43;4.03;;;24.40;53.20;;;;;;5009968;28;20108;-60
2023/05/22 08:16:46;;;;;;;5.22;4.72;;;24.40;53.20;;;;;;5009717;28;20401;-60
2023/05/22 08:19:12;;;;;;;5.00;4.50;;;24.40;53.20;;;;;;5007365;28;20045;-61
2023/05/22 08:21:39;;;;;;;4.82;4.32;;;24.40;53.90;;;;;;5009643;28;20393;-62
2023/05/22 08:24:06;;;;;;;5.28;4.57;;;24.40;53.40;;;;;;5016057;28;20109;-61
2023/05/22 08:26:32;;;;;;;5.50;4.97;;;24.40;53.40;;;;;;5021921;28;20029;-62
2023/05/22 08:28:59;;;;;;;6.40;4.82;;;24.40;53.50;;;;;;5018233;28;20030;-60
2023/05/22 08:31:26;;;;;;;5.75;4.90;;;24.50;53.60;;;;;;5017909;28;20053;-60
2023/05/22 08:33:52;;;;;;;5.80;5.20;;;24.50;53.60;;;;;;5013365;28;20049;-61
2023/05/22 08:36:19;;;;;;;5.30;4.80;;;24.50;53.70;;;;;;5016120;28;20026;-63
2023/05/22 08:38:44;;;;;;;6.15;5.18;;;24.50;53.70;;;;;;5016337;28;20366;-61
2023/05/22 08:41:11;;;;;;;5.28;4.75;;;24.50;53.80;;;;;;5017587;28;20033;-60
2023/05/22 08:43:37;;;;;;;6.07;5.03;;;24.50;53.80;;;;;;5026849;28;20458;-61
2023/05/22 08:46:04;;;;;;;5.70;5.10;;;24.50;53.90;;;;;;5041630;28;20107;-60
2023/05/22 08:48:31;;;;;;;5.47;4.97;;;24.50;53.90;;;;;;5059725;28;20036;-60
2023/05/22 08:51:04;;;;;;;5.75;5.18;;;24.60;54.00;;;;;;5040391;28;20361;-61
2023/05/22 08:53:35;;;;;;;5.53;5.03;;;24.50;54.10;;;;;;5060908;28;20111;-62
2023/05/22 08:56:05;;;;;;;5.28;4.78;;;24.60;54.10;;;;;;5059150;28;20666;-61
2023/05/22 08:58:33;;;;;;;5.55;5.05;;;24.50;54.00;;;;;;5056680;28;20429;-62
2023/05/22 09:01:00;;;;;;;5.43;4.93;;;24.60;54.10;;;;;;5059082;28;20032;-62
2023/05/22 09:03:31;;;;;;;5.88;5.28;;;24.60;54.10;;;;;;5056392;28;20113;-64
2023/05/22 09:05:58;;;;;;;5.55;4.95;;;24.60;54.00;;;;;;5058798;28;20024;-61
2023/05/22 09:08:24;;;;;;;5.63;5.03;;;24.60;54.00;;;;;;5050816;28;20039;-62
2023/05/22 09:10:50;;;;;;;5.72;5.05;;;24.60;54.00;;;;;;5057203;28;20037;-63
2023/05/22 09:13:25;;;;;;;6.00;5.40;;;24.60;53.90;;;;;;5059464;28;20037;-61
2023/05/22 09:15:51;;;;;;;6.00;5.40;;;24.60;53.80;;;;;;5054982;28;20075;-61
2023/05/22 09:18:17;;;;;;;6.28;5.68;;;24.60;53.70;;;;;;5043429;28;20349;-62
2023/05/22 09:20:43;;;;;;;5.50;5.00;;;24.60;53.60;;;;;;5058118;28;20021;-63
2023/05/22 09:23:16;;;;;;;5.70;5.20;;;24.60;53.50;;;;;;5059885;28;20052;-62
2023/05/22 09:25:43;;;;;;;5.97;5.38;;;24.60;53.30;;;;;;5055747;28;20051;-61
2023/05/22 09:28:11;;;;;;;5.78;5.18;;;24.60;53.10;;;;;;5042077;28;20021;-61
2023/05/22 09:30:36;;;;;;;6.80;6.10;;;24.70;53.00;;;;;;5036740;28;20082;-60
2023/05/22 09:33:03;;;;;;;5.60;5.00;;;24.70;52.80;;;;;;5058812;28;20114;-60
2023/05/22 09:35:32;;;;;;;5.47;4.97;;;24.70;52.70;;;;;;5052419;28;21220;-60
2023/05/22 09:37:58;;;;;;;6.25;5.65;;;24.70;52.50;;;;;;5057843;28;20332;-60
2023/05/22 09:40:27;;;;;;;5.93;5.32;;;24.70;52.40;;;;;;5056983;28;20386;-61
2023/05/22 09:42:52;;;;;;;5.90;5.30;;;24.70;52.20;;;;;;5058455;28;20060;-61
2023/05/22 09:45:22;;;;;;;5.45;4.95;;;24.70;52.20;;;;;;5057621;28;20480;-60
2023/05/22 09:47:49;;;;;;;5.63;5.03;;;24.70;52.10;;;;;;5056493;28;20114;-60
2023/05/22 09:50:16;;;;;;;6.30;5.70;;;24.70;52.00;;;;;;5055480;28;20055;-60
2023/05/22 09:52:44;;;;;;;6.00;5.40;;;24.80;52.00;;;;;;5037413;28;20124;-60
2023/05/22 09:55:12;;;;;;;6.22;5.28;;;24.80;51.80;;;;;;5055851;28;20099;-60
2023/05/22 09:57:42;;;;;;;5.40;4.90;;;24.80;51.70;;;;;;5056246;28;20307;-60
2023/05/22 10:00:13;;;;;;;5.32;4.82;;;24.80;51.60;;;;;;5055834;28;20024;-62
2023/05/22 10:02:44;;;;;;;6.15;5.38;;;24.80;51.60;;;;;;5054987;28;20424;-62
2023/05/22 10:05:11;;;;;;;6.18;5.22;;;24.80;51.50;;;;;;5053519;28;20406;-61
2023/05/22 10:08:07;;;;;;;5.80;5.20;;;24.80;51.50;;;;;;5032698;28;20025;-60
2023/05/22 10:10:36;;;;;;;5.38;4.78;;;24.90;51.50;;;;;;5040484;28;20385;-61
2023/05/22 10:13:04;;;;;;;5.70;5.10;;;24.90;51.50;;;;;;5049919;28;20186;-60
2023/05/22 10:15:30;;;;;;;5.80;5.15;;;24.90;51.40;;;;;;5032049;28;20116;-60
2023/05/22 10:17:57;;;;;;;6.25;4.90;;;24.90;51.30;;;;;;5050839;28;20118;-61
2023/05/22 10:20:25;;;;;;;6.80;5.28;;;24.90;51.40;;;;;;5052404;28;20024;-61
2023/05/22 10:22:56;;;;;;;5.88;5.13;;;24.90;51.30;;;;;;5059983;28;20062;-62
2023/05/22 10:25:22;;;;;;;5.95;5.35;;;24.90;51.30;;;;;;5059035;28;20024;-61
2023/05/22 10:27:51;;;;;;;5.97;5.38;;;24.90;51.30;;;;;;5039911;28;20025;-58
2023/05/22 10:30:17;;;;;;;6.15;5.43;;;24.90;51.30;;;;;;5053313;28;20020;-61
2023/05/22 10:33:16;;;;;;;5.57;5.03;;;24.90;51.30;;;;;;5030899;28;21630;-59
2023/05/22 10:35:51;;;;;;;6.00;5.38;;;24.90;51.30;;;;;;5049438;28;20021;-61
2023/05/22 10:38:39;;;;;;;5.53;5.03;;;24.90;51.30;;;;;;5030098;28;20400;-60
2023/05/22 10:41:06;;;;;;;5.30;4.80;;;25.00;51.30;;;;;;5050873;28;20412;-61
2023/05/22 10:43:37;;;;;;;6.13;5.32;;;25.00;51.30;;;;;;5046921;28;20045;-61
2023/05/22 10:46:04;;;;;;;5.68;5.07;;;24.90;51.20;;;;;;5045793;28;20024;-60
2023/05/22 10:48:44;;;;;;;5.70;5.10;;;25.00;51.20;;;;;;5050428;28;20047;-59
2023/05/22 10:51:13;;;;;;;5.43;4.93;;;24.90;51.10;;;;;;5052479;28;20047;-61
2023/05/22 10:53:41;;;;;;;5.32;4.82;;;25.00;51.20;;;;;;5056418;28;20158;-60
2023/05/22 10:56:09;;;;;;;6.50;5.05;;;25.00;51.10;;;;;;5049819;28;20059;-63
2023/05/22 10:58:37;;;;;;;6.43;5.47;;;25.00;51.10;;;;;;5048016;28;20088;-64
2023/05/22 11:01:17;;;;;;;6.22;5.20;;;25.00;51.00;;;;;;5042984;28;20029;-62
2023/05/22 11:04:04;;;;;;;5.55;5.05;;;25.00;50.90;;;;;;5026693;28;20048;-60
2023/05/22 11:06:30;;;;;;;6.20;5.60;;;25.00;50.80;;;;;;5049359;28;20037;-60
2023/05/22 11:09:25;;;;;;;6.03;5.43;;;25.00;50.80;;;;;;5049142;28;20035;-60
2023/05/22 11:12:23;;;;;;;6.05;5.45;;;25.00;50.70;;;;;;5049162;28;20070;-60
2023/05/22 11:14:52;;;;;;;5.13;4.65;;;25.00;50.60;;;;;;5048676;28;20112;-60
2023/05/22 11:17:27;;;;;;;5.78;5.18;;;25.00;50.60;;;;;;5048373;28;20067;-62
2023/05/22 11:20:14;;;;;;;5.75;5.25;;;25.10;50.70;;;;;;5057050;28;20436;-61
2023/05/22 11:22:48;;;;;;;5.55;4.97;;;25.10;50.80;;;;;;5037591;28;20437;-61
2023/05/22 11:25:18;;;;;;;6.35;5.70;;;25.10;50.90;;;;;;5040091;28;20025;-59
2023/05/22 11:27:46;;;;;;;7.75;6.22;;;25.20;50.90;;;;;;5054069;28;20036;-62
2023/05/22 11:30:12;;;;;;;6.85;6.15;;;25.20;50.90;;;;;;5051006;28;20444;-60
2023/05/22 11:32:43;;;;;;;6.57;5.97;;;25.20;50.90;;;;;;5037834;28;20301;-61
2023/05/22 11:35:19;;;;;;;6.30;5.70;;;25.20;50.90;;;;;;5053718;28;20035;-61
2023/05/22 11:37:47;;;;;;;6.55;5.95;;;25.20;50.90;;;;;;5054796;28;20082;-61
2023/05/22 11:40:15;;;;;;;5.93;5.43;;;25.30;51.00;;;;;;5058184;28;20119;-60
2023/05/22 11:42:43;;;;;;;7.45;6.30;;;25.20;50.90;;;;;;5056102;28;20384;-60
2023/05/22 11:45:09;;;;;;;6.18;5.57;;;25.30;50.90;;;;;;5053344;28;20137;-62
2023/05/22 11:47:36;;;;;;;7.13;5.97;;;25.30;50.80;;;;;;5053890;28;20044;-61
2023/05/22 11:50:02;;;;;;;6.18;5.57;;;25.30;50.80;;;;;;5055191;28;20082;-58
2023/05/22 11:52:33;;;;;;;6.13;5.53;;;25.30;50.80;;;;;;5051520;28;20168;-61
2023/05/22 11:54:59;;;;;;;6.30;5.70;;;25.30;50.80;;;;;;5050617;28;20050;-60
2023/05/22 11:57:25;;;;;;;6.03;5.43;;;25.30;50.80;;;;;;5055227;28;20025;-60
2023/05/22 11:59:51;;;;;;;6.20;5.60;;;25.40;50.80;;;;;;5038463;28;20087;-61
2023/05/22 12:02:18;;;;;;;6.05;5.45;;;25.30;50.60;;;;;;5058827;28;20152;-60
2023/05/22 12:04:44;;;;;;;6.70;6.03;;;25.40;50.70;;;;;;5050788;28;20039;-65
2023/05/22 12:07:10;;;;;;;6.18;5.57;;;25.40;50.70;;;;;;5051053;28;20154;-64
2023/05/22 12:09:41;;;;;;;6.32;5.72;;;25.40;50.60;;;;;;5050775;28;20078;-62
2023/05/22 12:12:10;;;;;;;6.00;5.40;;;25.40;50.70;;;;;;5047796;28;20029;-62
2023/05/22 12:14:36;;;;;;;6.85;5.35;;;25.50;51.10;;;;;;5046112;28;20095;-64
2023/05/22 12:17:05;;;;;;;6.35;5.75;;;25.50;51.30;;;;;;5044772;28;20033;-61
2023/05/22 12:19:31;;;;;;;6.63;6.00;;;25.50;51.50;;;;;;5044577;28;21653;-64
2023/05/22 12:21:57;;;;;;;6.57;5.82;;;25.50;51.60;;;;;;5048135;28;20105;-61
2023/05/22 12:24:24;;;;;;;6.60;6.00;;;25.50;51.60;;;;;;5048657;28;20108;-62
2023/05/22 12:26:51;;;;;;;6.28;5.68;;;25.50;51.60;;;;;;5046460;28;20392;-62
2023/05/22 12:29:18;;;;;;;6.13;5.53;;;25.50;51.60;;;;;;5044924;28;20052;-62
2023/05/22 12:31:47;;;;;;;6.53;5.93;;;25.50;51.70;;;;;;5047294;28;20025;-62
2023/05/22 12:34:15;;;;;;;6.60;6.00;;;25.50;51.70;;;;;;5051249;28;20482;-62
2023/05/22 12:36:43;;;;;;;6.30;5.70;;;25.50;51.90;;;;;;5048396;28;20358;-61
2023/05/22 12:39:16;;;;;;;6.70;6.00;;;25.50;52.10;;;;;;5047220;28;20114;-63
2023/05/22 12:41:46;;;;;;;6.68;5.78;;;25.50;52.20;;;;;;5046536;28;20043;-64
2023/05/22 12:44:13;;;;;;;7.28;5.95;;;25.50;52.20;;;;;;5045247;28;20060;-62
2023/05/22 12:46:41;;;;;;;5.95;5.45;;;25.50;52.20;;;;;;5044032;28;20160;-60
2023/05/22 12:49:07;;;;;;;6.28;5.68;;;25.60;52.30;;;;;;5050649;28;20045;-57
2023/05/22 12:51:33;;;;;;;6.07;5.47;;;25.60;52.30;;;;;;5055757;28;20128;-58
2023/05/22 12:54:01;;;;;;;5.75;5.25;;;25.60;52.90;;;;;;5050272;28;20036;-57
2023/05/22 12:56:30;;;;;;;6.70;6.07;;;25.60;52.20;;;;;;5052115;28;20068;-59